createdAt,value
2018-04-06T00:02:17.695Z,12.80
2018-04-06T00:04:46.688Z,12.07
2018-04-06T00:07:14.916Z,13.20
2018-04-06T00:09:43.149Z,7.60
2018-04-06T00:12:11.376Z,17.27
2018-04-06T00:14:39.965Z,10.17
2018-04-06T00:17:08.200Z,12.30
2018-04-06T00:19:36.443Z,11.37
2018-04-06T00:22:04.665Z,11.80
2018-04-06T00:24:33.673Z,7.90
2018-04-06T00:27:01.904Z,13.77
2018-04-06T00:29:30.144Z,11.07
2018-04-06T00:31:59.128Z,8.47
2018-04-06T00:34:28.133Z,14.03
2018-04-06T00:36:57.120Z,8.50
2018-04-06T00:39:26.120Z,14.17
2018-04-06T00:41:55.142Z,13.60
2018-04-06T00:44:24.114Z,14.43
2018-04-06T00:46:52.387Z,17.27
2018-04-06T00:49:20.628Z,11.37
2018-04-06T00:51:49.620Z,10.00
2018-04-06T00:54:18.629Z,11.63
2018-04-06T00:56:47.625Z,12.33
2018-04-06T00:59:16.625Z,15.50
2018-04-06T01:01:44.844Z,13.40
2018-04-06T01:04:13.095Z,19.77
2018-04-06T01:06:41.308Z,13.83
2018-04-06T01:09:09.565Z,10.40
2018-04-06T01:11:37.786Z,7.63
2018-04-06T01:14:06.768Z,16.20
2018-04-06T01:16:35.012Z,13.57
2018-04-06T01:19:03.232Z,8.97
2018-04-06T01:21:31.476Z,10.60
2018-04-06T01:24:00.468Z,16.10
2018-04-06T01:26:29.469Z,17.07
2018-04-06T01:28:58.455Z,15.57
2018-04-06T01:31:27.483Z,14.30
2018-04-06T01:33:55.713Z,17.40
2018-04-06T01:36:24.720Z,14.57
2018-04-06T01:38:53.712Z,8.80
2018-04-06T01:41:22.717Z,16.27
2018-04-06T01:43:50.941Z,11.63
2018-04-06T01:46:19.228Z,15.23
2018-04-06T01:48:47.460Z,11.17
2018-04-06T01:51:15.703Z,10.13
2018-04-06T01:53:43.924Z,15.77
2018-04-06T01:56:12.166Z,12.00
2018-04-06T01:58:40.388Z,12.47
2018-04-06T02:01:08.619Z,15.47
2018-04-06T02:03:36.853Z,15.17
2018-04-06T02:06:05.096Z,11.70
2018-04-06T02:08:33.315Z,16.30
2018-04-06T02:11:01.561Z,13.83
2018-04-06T02:13:29.788Z,16.50
2018-04-06T02:15:58.019Z,12.40
2018-04-06T02:18:26.240Z,14.67
2018-04-06T02:20:54.476Z,13.40
2018-04-06T02:23:23.469Z,15.37
2018-04-06T02:25:52.468Z,15.97
2018-04-06T02:28:20.706Z,10.80
2018-04-06T02:30:48.948Z,11.63
2018-04-06T02:33:17.178Z,10.73
2018-04-06T02:35:46.188Z,18.37
2018-04-06T02:38:14.409Z,13.60
2018-04-06T02:40:42.656Z,12.97
2018-04-06T02:43:10.885Z,13.43
2018-04-06T02:45:39.894Z,13.40
2018-04-06T02:48:08.116Z,9.53
2018-04-06T02:50:36.366Z,11.97
2018-04-06T02:53:04.606Z,14.70
2018-04-06T02:55:33.617Z,18.63
2018-04-06T02:58:01.853Z,11.83
2018-04-06T03:00:30.104Z,17.30
2018-04-06T03:02:59.170Z,17.23
2018-04-06T03:05:27.392Z,12.57
2018-04-06T03:07:55.632Z,9.90
2018-04-06T03:10:23.864Z,15.37
2018-04-06T03:12:52.122Z,10.87
2018-04-06T03:15:20.352Z,12.40
2018-04-06T03:17:48.592Z,13.90
2018-04-06T03:20:16.833Z,12.37
2018-04-06T03:22:45.072Z,14.30
2018-04-06T03:25:13.308Z,11.50
2018-04-06T03:27:41.548Z,15.30
2018-04-06T03:30:09.781Z,16.50
2018-04-06T03:32:38.030Z,10.90
2018-04-06T03:35:06.260Z,18.07
2018-04-06T03:37:34.504Z,10.70
2018-04-06T03:40:02.740Z,12.60
2018-04-06T03:42:31.744Z,9.93
2018-04-06T03:44:59.973Z,13.20
2018-04-06T03:47:28.213Z,12.77
2018-04-06T03:49:56.454Z,14.83
2018-04-06T03:52:25.456Z,14.27
2018-04-06T03:54:53.689Z,12.17
2018-04-06T03:57:21.932Z,13.93
2018-04-06T03:59:50.155Z,11.43
2018-04-06T04:02:19.192Z,16.30
2018-04-06T04:04:47.425Z,11.13
2018-04-06T04:07:16.434Z,14.30
2018-04-06T04:09:44.663Z,11.63
2018-04-06T04:12:12.907Z,14.23
2018-04-06T04:14:41.140Z,23.90
2018-04-06T04:17:10.163Z,15.20
2018-04-06T04:19:38.401Z,20.37
2018-04-06T04:22:07.419Z,14.97
2018-04-06T04:24:35.649Z,21.93
2018-04-06T04:27:03.909Z,10.43
2018-04-06T04:29:32.132Z,8.60
2018-04-06T04:32:00.370Z,12.43
2018-04-06T04:34:28.629Z,11.97
2018-04-06T04:36:56.852Z,13.43
2018-04-06T04:39:25.085Z,12.47
2018-04-06T04:41:53.328Z,14.80
2018-04-06T04:44:21.563Z,13.83
2018-04-06T04:46:50.583Z,12.37
2018-04-06T04:49:18.817Z,18.70
2018-04-06T04:51:47.051Z,10.87
2018-04-06T04:54:15.306Z,13.00
2018-04-06T04:56:43.540Z,11.03
2018-04-06T04:59:11.786Z,13.47
2018-04-06T05:01:40.009Z,13.37
2018-04-06T05:04:08.661Z,15.17
2018-04-06T05:06:36.861Z,9.97
2018-04-06T05:09:05.817Z,14.20
2018-04-06T05:11:34.040Z,15.53
2018-04-06T05:14:02.280Z,13.70
2018-04-06T05:16:31.284Z,14.30
2018-04-06T05:19:00.298Z,17.43
2018-04-06T05:21:28.544Z,15.67
2018-04-06T05:23:57.553Z,19.17
2018-04-06T05:26:25.785Z,23.03
2018-04-06T05:28:54.021Z,17.97
2018-04-06T05:31:22.263Z,10.67
2018-04-06T05:33:51.278Z,17.57
2018-04-06T05:36:19.516Z,15.33
2018-04-06T05:38:48.613Z,17.80
2018-04-06T05:41:16.763Z,17.10
2018-04-06T05:43:45.267Z,17.43
2018-04-06T05:46:13.488Z,17.93
2018-04-06T05:48:41.729Z,20.57
2018-04-06T05:51:09.961Z,20.07
2018-04-06T05:53:38.205Z,17.73
2018-04-06T05:56:06.437Z,16.40
2018-04-06T05:58:35.436Z,16.90
2018-04-06T06:01:03.664Z,14.37
2018-04-06T06:03:31.893Z,16.93
2018-04-06T06:06:00.125Z,13.00
2018-04-06T06:08:28.366Z,18.43
2018-04-06T06:10:56.583Z,21.73
2018-04-06T06:13:25.593Z,18.47
2018-04-06T06:15:54.585Z,17.30
2018-04-06T06:18:23.580Z,18.97
2018-04-06T06:20:51.808Z,15.17
2018-04-06T06:23:20.048Z,23.30
2018-04-06T06:25:48.273Z,15.37
2018-04-06T06:28:16.533Z,17.03
2018-04-06T06:30:44.760Z,16.93
2018-04-06T06:33:13.012Z,17.30
2018-04-06T06:35:42.012Z,17.07
2018-04-06T06:38:10.240Z,17.10
2018-04-06T06:40:38.486Z,19.30
2018-04-06T06:43:06.710Z,17.30
2018-04-06T06:45:34.941Z,17.43
2018-04-06T06:48:03.165Z,14.93
2018-04-06T06:50:32.168Z,18.93
2018-04-06T06:53:00.391Z,16.27
2018-04-06T06:55:28.632Z,11.90
2018-04-06T06:57:56.851Z,11.03
2018-04-06T07:00:25.093Z,10.93
2018-04-06T07:02:53.396Z,11.63
2018-04-06T07:05:21.633Z,16.53
2018-04-06T07:07:49.868Z,14.50
2018-04-06T07:10:18.916Z,12.80
2018-04-06T07:12:47.101Z,10.50
2018-04-06T07:15:15.344Z,15.80
2018-04-06T07:17:43.569Z,11.33
2018-04-06T07:20:11.809Z,13.73
2018-04-06T07:22:40.045Z,11.97
2018-04-06T07:25:08.287Z,18.83
2018-04-06T07:27:36.516Z,14.90
2018-04-06T07:30:04.748Z,8.60
2018-04-06T07:32:33.837Z,12.53
2018-04-06T07:35:02.061Z,9.23
2018-04-06T07:37:30.301Z,14.53
2018-04-06T07:39:59.295Z,13.40
2018-04-06T07:42:28.304Z,12.87
2018-04-06T07:44:56.535Z,14.83
2018-04-06T07:47:24.772Z,11.57
2018-04-06T07:49:53.210Z,16.80
2018-04-06T07:52:21.503Z,12.83
2018-04-06T07:54:49.720Z,16.73
2018-04-06T07:57:17.961Z,8.83
2018-04-06T07:59:46.177Z,12.37
2018-04-06T08:02:14.426Z,12.53
2018-04-06T08:04:42.652Z,14.03
2018-04-06T08:07:11.651Z,13.03
2018-04-06T08:09:39.897Z,10.77
2018-04-06T08:12:08.129Z,11.40
2018-04-06T08:14:36.370Z,14.57
2018-04-06T08:17:05.364Z,13.70
2018-04-06T08:19:33.648Z,9.53
2018-04-06T08:22:01.877Z,10.67
2018-04-06T08:24:30.110Z,15.40
2018-04-06T08:26:58.332Z,11.60
2018-04-06T08:29:26.580Z,12.93
2018-04-06T08:31:54.809Z,12.30
2018-04-06T08:34:23.050Z,13.77
2018-04-06T08:36:51.273Z,11.87
2018-04-06T08:39:19.508Z,12.43
2018-04-06T08:41:48.499Z,11.20
2018-04-06T08:44:17.509Z,16.57
2018-04-06T08:46:46.495Z,9.40
2018-04-06T08:49:15.506Z,11.60
2018-04-06T08:51:43.732Z,11.13
2018-04-06T08:54:11.971Z,10.03
2018-04-06T08:56:40.203Z,12.97
2018-04-06T08:59:09.200Z,11.37
2018-04-06T09:01:37.428Z,14.90
2018-04-06T09:04:05.664Z,11.33
2018-04-06T09:06:33.897Z,13.80
2018-04-06T09:09:02.141Z,9.53
2018-04-06T09:11:30.359Z,12.60
2018-04-06T09:13:59.371Z,10.70
2018-04-06T09:16:27.613Z,10.90
2018-04-06T09:18:55.852Z,10.77
2018-04-06T09:21:24.084Z,11.43
2018-04-06T09:23:52.332Z,9.60
2018-04-06T09:26:20.562Z,9.90
2018-04-06T09:28:48.783Z,9.83
2018-04-06T09:31:17.786Z,9.47
2018-04-06T09:33:47.108Z,10.33
2018-04-06T09:36:17.823Z,6.63
2018-04-06T09:38:47.381Z,11.50
2018-04-06T09:41:16.301Z,9.17
2018-04-06T09:43:44.974Z,9.43
2018-04-06T09:46:13.190Z,6.77
2018-04-06T09:48:41.419Z,6.77
2018-04-06T09:51:09.659Z,6.20
2018-04-06T09:53:37.884Z,9.07
2018-04-06T09:56:06.891Z,9.43
2018-04-06T09:58:35.141Z,8.13
2018-04-06T10:01:05.955Z,7.33
2018-04-06T10:03:34.205Z,5.90
2018-04-06T10:06:02.431Z,7.17
2018-04-06T10:08:32.240Z,5.90
2018-04-06T10:11:01.259Z,7.83
2018-04-06T10:13:29.483Z,7.37
2018-04-06T10:15:57.722Z,6.77
2018-04-06T10:18:25.948Z,7.17
2018-04-06T10:20:54.954Z,7.23
2018-04-06T10:23:23.952Z,6.70
2018-04-06T10:25:52.200Z,5.13
2018-04-06T10:28:20.457Z,6.13
2018-04-06T10:30:48.697Z,7.00
2018-04-06T10:33:16.975Z,8.00
2018-04-06T10:35:45.162Z,8.23
2018-04-06T10:38:13.389Z,6.13
2018-04-06T10:40:42.408Z,5.03
2018-04-06T10:43:10.632Z,6.23
2018-04-06T10:45:38.857Z,4.63
2018-04-06T10:48:07.099Z,7.13
2018-04-06T10:50:36.097Z,3.57
2018-04-06T10:53:05.092Z,4.83
2018-04-06T10:55:33.326Z,6.40
2018-04-06T10:58:01.564Z,6.73
2018-04-06T11:00:29.797Z,7.63
2018-04-06T11:02:58.795Z,5.73
2018-04-06T11:05:27.028Z,5.03
2018-04-06T11:07:55.279Z,5.93
2018-04-06T11:10:23.508Z,5.30
2018-04-06T11:12:57.408Z,6.70
2018-04-06T11:15:26.398Z,4.97
2018-04-06T11:17:55.400Z,5.43
2018-04-06T11:20:24.400Z,5.33
2018-04-06T11:22:53.433Z,5.90
2018-04-06T11:25:21.649Z,5.07
2018-04-06T11:27:50.657Z,4.50
2018-04-06T11:30:18.890Z,4.27
2018-04-06T11:32:47.133Z,4.77
2018-04-06T11:35:15.353Z,4.63
2018-04-06T11:37:43.588Z,2.80
2018-04-06T11:40:11.816Z,2.43
2018-04-06T11:42:40.828Z,2.80
2018-04-06T11:45:09.068Z,4.40
2018-04-06T11:47:37.429Z,2.90
2018-04-06T11:50:05.629Z,3.90
2018-04-06T11:52:34.627Z,3.10
2018-04-06T11:55:02.859Z,4.53
2018-04-06T11:57:31.092Z,5.23
2018-04-06T11:59:59.325Z,3.90
2018-04-06T12:02:27.557Z,5.50
2018-04-06T12:04:55.800Z,4.93
2018-04-06T12:07:24.035Z,4.93
2018-04-06T12:09:52.272Z,6.33
2018-04-06T12:12:20.500Z,3.63
2018-04-06T12:14:49.508Z,4.03
2018-04-06T12:17:17.734Z,5.43
2018-04-06T12:19:45.979Z,7.60
2018-04-06T12:22:14.213Z,4.47
2018-04-06T12:24:42.448Z,5.30
2018-04-06T12:27:10.682Z,5.70
2018-04-06T12:29:39.711Z,4.43
2018-04-06T12:32:07.921Z,5.47
2018-04-06T12:34:36.177Z,4.40
2018-04-06T12:37:04.404Z,5.80
2018-04-06T12:39:32.644Z,4.83
2018-04-06T12:42:01.642Z,4.33
2018-04-06T12:44:30.645Z,5.27
2018-04-06T12:46:59.641Z,5.20
2018-04-06T12:49:28.645Z,6.47
2018-04-06T12:51:56.876Z,4.07
2018-04-06T12:54:25.104Z,3.13
2018-04-06T12:56:53.344Z,3.27
2018-04-06T12:59:22.344Z,4.13
2018-04-06T13:01:50.568Z,5.37
2018-04-06T13:04:19.185Z,3.40
2018-04-06T13:06:47.403Z,3.93
2018-04-06T13:09:15.649Z,4.17
2018-04-06T13:11:44.635Z,4.00
2018-04-06T13:14:12.872Z,3.70
2018-04-06T13:16:41.109Z,3.87
2018-04-06T13:19:09.411Z,5.80
2018-04-06T13:21:37.707Z,3.40
2018-04-06T13:24:05.932Z,4.30
2018-04-06T13:26:34.211Z,4.17
2018-04-06T13:29:02.440Z,5.57
2018-04-06T13:31:31.451Z,6.73
2018-04-06T13:33:59.669Z,4.40
2018-04-06T13:36:27.917Z,4.67
2018-04-06T13:38:56.148Z,6.73
2018-04-06T13:41:24.385Z,5.07
2018-04-06T13:43:52.617Z,5.57
2018-04-06T13:46:20.869Z,4.63
2018-04-06T13:48:49.085Z,4.63
2018-04-06T13:51:17.316Z,5.67
2018-04-06T13:53:46.307Z,3.40
2018-04-06T13:56:14.548Z,5.83
2018-04-06T13:58:42.769Z,3.97
2018-04-06T14:01:11.808Z,3.93
2018-04-06T14:03:40.016Z,3.20
2018-04-06T14:06:08.254Z,3.00
2018-04-06T14:08:36.497Z,3.07
2018-04-06T14:11:04.735Z,5.27
2018-04-06T14:13:32.963Z,5.80
2018-04-06T14:16:01.206Z,5.40
2018-04-06T14:18:30.197Z,4.10
2018-04-06T14:20:59.197Z,3.73
2018-04-06T14:23:27.459Z,3.30
2018-04-06T14:25:56.443Z,4.03
2018-04-06T14:28:25.448Z,4.03
2018-04-06T14:30:53.672Z,2.83
2018-04-06T14:33:21.909Z,2.97
2018-04-06T14:35:50.133Z,5.03
2018-04-06T14:38:18.375Z,3.30
2018-04-06T14:40:46.590Z,5.33
2018-04-06T14:43:14.836Z,3.70
2018-04-06T14:45:43.064Z,3.80
2018-04-06T14:48:11.306Z,2.70
2018-04-06T14:50:39.537Z,2.53
2018-04-06T14:53:07.770Z,6.57
2018-04-06T14:55:36.755Z,4.20
2018-04-06T14:58:05.763Z,4.70
2018-04-06T15:00:34.756Z,5.63
2018-04-06T15:03:02.998Z,4.50
2018-04-06T15:05:31.221Z,3.10
2018-04-06T15:07:59.468Z,4.67
2018-04-06T15:10:28.469Z,4.80
2018-04-06T15:12:57.465Z,3.23
2018-04-06T15:15:25.689Z,3.47
2018-04-06T15:17:53.937Z,3.77
2018-04-06T15:20:22.472Z,2.80
2018-04-06T15:22:50.704Z,3.37
2018-04-06T15:25:18.928Z,2.97
2018-04-06T15:27:47.964Z,3.27
2018-04-06T15:30:16.196Z,4.70
2018-04-06T15:32:45.196Z,2.33
2018-04-06T15:35:13.424Z,3.17
2018-04-06T15:37:41.660Z,2.80
2018-04-06T15:40:09.912Z,3.70
2018-04-06T15:42:38.908Z,2.80
2018-04-06T15:45:07.160Z,3.10
2018-04-06T15:47:35.380Z,3.63
2018-04-06T15:50:03.632Z,5.23
2018-04-06T15:52:31.870Z,6.70
2018-04-06T15:55:00.285Z,3.40
2018-04-06T15:57:28.532Z,4.33
2018-04-06T15:59:56.800Z,2.57
2018-04-06T16:02:25.033Z,3.87
2018-04-06T16:04:53.271Z,4.93
2018-04-06T16:07:21.501Z,3.93
2018-04-06T16:09:50.010Z,2.77
2018-04-06T16:12:18.236Z,2.90
2018-04-06T16:14:46.485Z,4.53
2018-04-06T16:17:14.708Z,3.77
2018-04-06T16:19:42.957Z,8.30
2018-04-06T16:22:11.953Z,5.40
2018-04-06T16:24:40.201Z,6.53
2018-04-06T16:27:08.457Z,4.03
2018-04-06T16:29:37.459Z,5.73
2018-04-06T16:32:05.692Z,4.10
2018-04-06T16:34:33.940Z,4.60
2018-04-06T16:37:02.180Z,4.67
2018-04-06T16:39:30.441Z,4.30
2018-04-06T16:41:59.424Z,5.00
2018-04-06T16:44:28.418Z,4.17
2018-04-06T16:46:57.426Z,5.60
2018-04-06T16:49:26.421Z,59.63
2018-04-06T16:51:54.668Z,9.23
2018-04-06T16:54:23.715Z,6.13
2018-04-06T16:56:51.938Z,7.20
2018-04-06T16:59:20.928Z,6.40
2018-04-06T17:01:49.944Z,7.23
2018-04-06T17:04:18.156Z,6.27
2018-04-06T17:06:46.397Z,6.40
2018-04-06T17:09:14.621Z,8.07
2018-04-06T17:11:42.869Z,11.73
2018-04-06T17:14:11.100Z,6.53
2018-04-06T17:16:39.343Z,6.33
2018-04-06T17:19:07.753Z,8.90
2018-04-06T17:21:36.454Z,7.20
2018-04-06T17:24:05.900Z,6.73
2018-04-06T17:26:34.687Z,6.53
2018-04-06T17:29:04.201Z,8.17
2018-04-06T17:31:32.802Z,9.27
2018-04-06T17:34:01.572Z,8.27
2018-04-06T17:36:30.150Z,10.80
2018-04-06T17:38:58.663Z,7.93
2018-04-06T17:41:27.735Z,9.63
2018-04-06T17:43:56.315Z,5.70
2018-04-06T17:46:24.651Z,7.87
2018-04-06T17:48:53.311Z,8.23
2018-04-06T17:51:22.271Z,6.13
2018-04-06T17:53:51.011Z,8.80
2018-04-06T17:56:19.786Z,9.47
2018-04-06T17:58:48.513Z,8.53
2018-04-06T18:01:16.950Z,6.63
2018-04-06T18:03:46.147Z,10.33
2018-04-06T18:06:14.796Z,8.93
2018-04-06T18:08:43.536Z,7.30
2018-04-06T18:11:12.580Z,10.13
2018-04-06T18:13:40.845Z,9.30
2018-04-06T18:16:09.051Z,7.13
2018-04-06T18:18:37.304Z,7.83
2018-04-06T18:21:05.544Z,6.37
2018-04-06T18:23:33.790Z,7.37
2018-04-06T18:26:02.016Z,9.00
2018-04-06T18:28:31.073Z,7.40
2018-04-06T18:30:59.647Z,6.87
2018-04-06T18:33:27.885Z,6.77
2018-04-06T18:35:56.132Z,6.70
2018-04-06T18:38:24.394Z,7.63
2018-04-06T18:40:52.924Z,7.60
2018-04-06T18:43:21.100Z,8.87
2018-04-06T18:45:49.320Z,8.90
2018-04-06T18:48:17.552Z,9.27
2018-04-06T18:50:45.793Z,7.83
2018-04-06T18:53:14.792Z,9.00
2018-04-06T18:55:43.016Z,10.73
2018-04-06T18:58:11.253Z,7.23
2018-04-06T19:00:39.606Z,6.73
2018-04-06T19:03:07.947Z,8.20
2018-04-06T19:05:36.143Z,8.17
2018-04-06T19:08:05.150Z,7.97
2018-04-06T19:10:33.372Z,7.00
2018-04-06T19:13:01.602Z,6.47
2018-04-06T19:15:29.897Z,7.37
2018-04-06T19:17:58.118Z,8.00
2018-04-06T19:20:26.349Z,6.97
2018-04-06T19:22:54.565Z,8.30
2018-04-06T19:25:22.810Z,8.40
2018-04-06T19:27:51.030Z,7.90
2018-04-06T19:30:20.024Z,8.23
2018-04-06T19:32:48.248Z,9.97
2018-04-06T19:35:17.243Z,10.43
2018-04-06T19:37:46.988Z,8.00
2018-04-06T19:40:16.004Z,11.23
2018-04-06T19:42:44.235Z,11.60
2018-04-06T19:45:12.464Z,9.43
2018-04-06T19:47:40.736Z,8.83
2018-04-06T19:50:08.934Z,11.40
2018-04-06T19:52:37.929Z,8.80
2018-04-06T19:55:06.937Z,9.97
2018-04-06T19:57:35.152Z,11.60
2018-04-06T20:00:03.384Z,8.60
2018-04-06T20:02:31.625Z,9.87
2018-04-06T20:04:59.840Z,7.93
2018-04-06T20:07:28.076Z,6.80
2018-04-06T20:09:56.292Z,7.20
2018-04-06T20:12:25.314Z,9.07
2018-04-06T20:14:53.541Z,6.70
2018-04-06T20:17:21.775Z,8.60
2018-04-06T20:19:49.991Z,8.63
2018-04-06T20:22:19.048Z,7.00
2018-04-06T20:24:47.266Z,6.37
2018-04-06T20:27:15.500Z,9.73
2018-04-06T20:29:43.723Z,5.57
2018-04-06T20:32:12.724Z,11.37
2018-04-06T20:34:40.954Z,8.90
2018-04-06T20:37:09.190Z,7.80
2018-04-06T20:39:37.421Z,6.37
2018-04-06T20:42:05.664Z,7.70
2018-04-06T20:44:33.875Z,8.67
2018-04-06T20:47:02.865Z,7.27
2018-04-06T20:49:31.125Z,8.47
2018-04-06T20:51:59.338Z,7.60
2018-04-06T20:54:27.579Z,8.20
2018-04-06T20:56:55.801Z,7.60
2018-04-06T20:59:24.046Z,6.33
2018-04-06T21:01:52.240Z,6.27
2018-04-06T21:04:20.471Z,7.37
2018-04-06T21:06:48.687Z,6.17
2018-04-06T21:09:16.928Z,9.80
2018-04-06T21:11:45.149Z,11.57
2018-04-06T21:14:13.384Z,4.63
2018-04-06T21:16:42.391Z,7.17
2018-04-06T21:19:10.632Z,11.30
2018-04-06T21:21:38.857Z,6.37
2018-04-06T21:24:07.084Z,8.83
2018-04-06T21:26:36.068Z,8.17
2018-04-06T21:29:04.310Z,9.90
2018-04-06T21:31:32.533Z,6.77
2018-04-06T21:34:01.533Z,10.97
2018-04-06T21:36:29.763Z,7.03
2018-04-06T21:38:57.993Z,8.13
2018-04-06T21:41:26.212Z,7.43
2018-04-06T21:43:54.468Z,8.83
2018-04-06T21:46:22.676Z,8.30
2018-04-06T21:48:50.896Z,8.97
2018-04-06T21:51:19.140Z,5.93
2018-04-06T21:53:48.125Z,7.43
2018-04-06T21:56:17.128Z,7.97
2018-04-06T21:58:46.118Z,6.73
2018-04-06T22:01:15.111Z,6.07
2018-04-06T22:03:44.100Z,7.67
2018-04-06T22:06:13.100Z,5.67
2018-04-06T22:08:41.324Z,7.60
2018-04-06T22:11:09.556Z,7.53
2018-04-06T22:13:37.786Z,3.87
2018-04-06T22:16:06.020Z,4.83
2018-04-06T22:18:34.229Z,6.60
2018-04-06T22:21:02.460Z,5.87
2018-04-06T22:23:30.684Z,5.50
2018-04-06T22:25:58.912Z,5.17
2018-04-06T22:28:27.144Z,6.47
2018-04-06T22:30:56.632Z,5.27
2018-04-06T22:33:24.824Z,6.17
2018-04-06T22:35:53.825Z,5.40
2018-04-06T22:38:22.804Z,5.77
2018-04-06T22:40:51.804Z,4.83
2018-04-06T22:43:20.803Z,5.43
2018-04-06T22:45:49.055Z,3.87
2018-04-06T22:48:17.268Z,4.57
2018-04-06T22:50:45.502Z,5.50
2018-04-06T22:53:13.716Z,6.83
2018-04-06T22:55:41.961Z,5.67
2018-04-06T22:58:10.957Z,4.93
2018-04-06T23:00:39.944Z,5.27
2018-04-06T23:03:09.092Z,5.80
2018-04-06T23:05:37.327Z,7.00
2018-04-06T23:08:05.568Z,4.97
2018-04-06T23:10:33.789Z,5.77
2018-04-06T23:13:02.017Z,6.97
2018-04-06T23:15:30.232Z,5.10
2018-04-06T23:17:58.469Z,4.77
2018-04-06T23:20:27.456Z,6.20
2018-04-06T23:22:55.688Z,5.83
2018-04-06T23:25:23.899Z,5.83
2018-04-06T23:27:52.140Z,6.63
2018-04-06T23:30:20.364Z,5.93
2018-04-06T23:32:49.361Z,5.87
2018-04-06T23:35:17.580Z,6.87
2018-04-06T23:37:45.812Z,5.83
2018-04-06T23:40:14.032Z,6.70
2018-04-06T23:42:42.269Z,4.83
2018-04-06T23:45:10.489Z,5.37
2018-04-06T23:47:38.727Z,7.10
2018-04-06T23:50:06.944Z,7.03
2018-04-06T23:52:35.176Z,4.90
2018-04-06T23:55:03.399Z,5.93
2018-04-06T23:57:31.636Z,6.77
2018-04-06T23:59:59.864Z,4.10
